Time;durP1;ratioP1;P1;durP2;ratioP2;P2;SDS_P1;SDS_P2;PMS_P1;PMS_P2;Temp;Humidity;BMP_temperature;BMP_pressure;BME280_temperature;BME280_humidity;BME280_pressure;Samples;Min_cycle;Max_cycle;Signal;HPM_P1;HPM_P2
2022/10/29 00:00:25;;;;;;;7.82;2.03;;;;;;;;;;5011906;28;20053;-79
2022/10/29 00:02:51;;;;;;;18.65;2.50;;;;;;;;;;5009346;28;20461;-78
2022/10/29 00:05:18;;;;;;;15.18;2.67;;;;;;;;;;5010300;28;20395;-79
2022/10/29 00:07:44;;;;;;;10.50;2.20;;;;;;;;;;5011316;28;20053;-79
2022/10/29 00:10:10;;;;;;;11.07;2.80;;;;;;;;;;5009257;28;20565;-79
2022/10/29 00:12:37;;;;;;;10.48;2.53;;;;;;;;;;5008719;28;20046;-79
2022/10/29 00:15:03;;;;;;;9.98;2.13;;;;;;;;;;5009353;28;20064;-77
2022/10/29 00:17:30;;;;;;;13.65;2.30;;;;;;;;;;5008725;28;20072;-78
2022/10/29 00:19:56;;;;;;;12.07;2.67;;;;;;;;;;5008602;28;20434;-78
2022/10/29 00:22:22;;;;;;;14.75;2.47;;;;;;;;;;5009057;28;20352;-78
2022/10/29 00:24:49;;;;;;;13.60;2.45;;;;;;;;;;5007908;28;20045;-78
2022/10/29 00:27:15;;;;;;;11.98;2.45;;;;;;;;;;5008924;28;20050;-78
2022/10/29 00:29:42;;;;;;;9.32;2.03;;;;;;;;;;5009980;28;20049;-78
2022/10/29 00:32:08;;;;;;;15.55;3.13;;;;;;;;;;5010071;28;20046;-79
2022/10/29 00:34:36;;;;;;;12.48;2.42;;;;;;;;;;5009714;28;20085;-78
2022/10/29 00:37:03;;;;;;;17.15;2.47;;;;;;;;;;4993493;28;20053;-78
2022/10/29 00:39:31;;;;;;;12.07;2.17;;;;;;;;;;5008619;28;20622;-79
2022/10/29 00:41:58;;;;;;;12.77;2.60;;;;;;;;;;4993575;28;20058;-79
2022/10/29 00:44:27;;;;;;;10.75;2.95;;;;;;;;;;5010305;28;20060;-80
2022/10/29 00:47:12;;;;;;;8.98;2.30;;;;;;;;;;5011880;28;20052;-79
2022/10/29 00:49:40;;;;;;;10.55;2.45;;;;;;;;;;5010606;28;20050;-79
2022/10/29 00:52:08;;;;;;;11.35;2.28;;;;;;;;;;5011097;28;20054;-79
2022/10/29 00:54:37;;;;;;;10.68;2.25;;;;;;;;;;5012647;28;20121;-78
2022/10/29 00:57:10;;;;;;;10.93;2.40;;;;;;;;;;5002473;28;20057;-79
2022/10/29 00:59:36;;;;;;;8.43;2.35;;;;;;;;;;5012140;28;20054;-78
2022/10/29 01:02:02;;;;;;;12.40;2.42;;;;;;;;;;5010173;28;20050;-78
2022/10/29 01:04:29;;;;;;;15.13;2.78;;;;;;;;;;5007031;28;20479;-78
2022/10/29 01:06:55;;;;;;;11.85;2.33;;;;;;;;;;5015476;28;20115;-79
2022/10/29 01:09:22;;;;;;;15.35;2.10;;;;;;;;;;5011675;28;20054;-77
2022/10/29 01:12:07;;;;;;;12.60;2.97;;;;;;;;;;5010998;28;20046;-79
2022/10/29 01:14:46;;;;;;;10.05;2.47;;;;;;;;;;5009052;28;20132;-79
2022/10/29 01:17:27;;;;;;;18.00;2.92;;;;;;;;;;4992903;28;20136;-79
2022/10/29 01:20:12;;;;;;;11.35;2.45;;;;;;;;;;5012867;28;20054;-79
2022/10/29 01:22:42;;;;;;;12.75;2.47;;;;;;;;;;5012427;28;20053;-78
2022/10/29 01:25:29;;;;;;;5.82;2.08;;;;;;;;;;5017860;28;20109;-80
2022/10/29 01:27:56;;;;;;;14.60;2.60;;;;;;;;;;5015670;28;20105;-78
2022/10/29 01:30:31;;;;;;;13.48;2.78;;;;;;;;;;5015789;28;20494;-78
2022/10/29 01:33:24;;;;;;;13.95;2.88;;;;;;;;;;5012325;28;20067;-78
2022/10/29 01:35:57;;;;;;;13.63;2.67;;;;;;;;;;5011424;28;20054;-79
2022/10/29 01:38:36;;;;;;;14.25;2.53;;;;;;;;;;4998161;28;20052;-78
2022/10/29 01:41:07;;;;;;;7.07;2.60;;;;;;;;;;5023730;28;20053;-80
2022/10/29 01:43:54;;;;;;;11.57;2.63;;;;;;;;;;5025070;28;20049;-79
2022/10/29 01:46:24;;;;;;;12.05;2.50;;;;;;;;;;5017218;28;20064;-79
2022/10/29 01:48:52;;;;;;;7.82;2.47;;;;;;;;;;5012620;28;20052;-79
2022/10/29 01:51:20;;;;;;;14.07;2.63;;;;;;;;;;5013182;28;20053;-78
2022/10/29 01:53:47;;;;;;;8.63;2.53;;;;;;;;;;5013186;28;20494;-79
2022/10/29 01:56:14;;;;;;;12.27;2.63;;;;;;;;;;4997768;28;20053;-79
2022/10/29 01:58:41;;;;;;;10.68;2.72;;;;;;;;;;5015150;28;20056;-78
2022/10/29 02:01:24;;;;;;;13.52;3.22;;;;;;;;;;5013381;28;20057;-78
2022/10/29 02:04:02;;;;;;;12.18;2.47;;;;;;;;;;5011034;28;20073;-79
2022/10/29 02:06:34;;;;;;;10.57;2.28;;;;;;;;;;5013980;28;20060;-78
2022/10/29 02:09:00;;;;;;;9.95;2.35;;;;;;;;;;5014494;28;20046;-78
2022/10/29 02:11:32;;;;;;;9.85;2.25;;;;;;;;;;5023362;28;20046;-79
2022/10/29 02:14:09;;;;;;;14.18;2.60;;;;;;;;;;5021170;28;20055;-78
2022/10/29 02:16:35;;;;;;;10.05;2.45;;;;;;;;;;5023946;28;20114;-79
2022/10/29 02:19:03;;;;;;;11.50;2.70;;;;;;;;;;5021577;28;20049;-78
2022/10/29 02:21:30;;;;;;;10.90;2.60;;;;;;;;;;5022888;28;20050;-78
2022/10/29 02:23:56;;;;;;;14.23;2.50;;;;;;;;;;5020009;28;20057;-77
2022/10/29 02:26:22;;;;;;;14.07;2.60;;;;;;;;;;5023029;28;20060;-79
2022/10/29 02:28:49;;;;;;;9.18;2.70;;;;;;;;;;5023613;28;20042;-80
2022/10/29 02:31:15;;;;;;;12.15;2.65;;;;;;;;;;5024206;28;20057;-78
2022/10/29 02:33:42;;;;;;;8.85;2.67;;;;;;;;;;5018509;28;20046;-78
2022/10/29 02:36:08;;;;;;;15.30;2.80;;;;;;;;;;5019166;28;20050;-79
2022/10/29 02:38:34;;;;;;;9.95;2.40;;;;;;;;;;5013481;28;20050;-78
2022/10/29 02:41:01;;;;;;;12.10;2.67;;;;;;;;;;5010973;28;20367;-78
2022/10/29 02:43:27;;;;;;;12.80;2.75;;;;;;;;;;5010655;28;20516;-79
2022/10/29 02:46:10;;;;;;;12.65;2.45;;;;;;;;;;5011996;28;20056;-79
2022/10/29 02:48:36;;;;;;;9.68;2.75;;;;;;;;;;5011224;28;20054;-79
2022/10/29 02:51:03;;;;;;;10.35;2.38;;;;;;;;;;5011267;28;20049;-80
2022/10/29 02:53:29;;;;;;;9.20;2.55;;;;;;;;;;5010131;28;20046;-78
2022/10/29 02:55:55;;;;;;;9.80;2.42;;;;;;;;;;5012055;28;20053;-79
2022/10/29 02:58:22;;;;;;;11.13;2.90;;;;;;;;;;4995944;28;20054;-77
2022/10/29 03:00:49;;;;;;;16.25;2.30;;;;;;;;;;5012819;28;20425;-79
2022/10/29 03:03:15;;;;;;;11.98;2.42;;;;;;;;;;5010814;28;20422;-79
2022/10/29 03:05:44;;;;;;;13.18;2.83;;;;;;;;;;5011717;28;20075;-79
2022/10/29 03:08:14;;;;;;;12.32;2.53;;;;;;;;;;5011169;28;20056;-80
2022/10/29 03:10:41;;;;;;;12.15;2.92;;;;;;;;;;4995126;28;20421;-78
2022/10/29 03:13:07;;;;;;;12.15;2.70;;;;;;;;;;5010777;28;20749;-80
2022/10/29 03:15:33;;;;;;;16.17;3.40;;;;;;;;;;5014262;28;20066;-79
2022/10/29 03:18:00;;;;;;;13.93;2.58;;;;;;;;;;5014958;28;20085;-80
2022/10/29 03:20:26;;;;;;;9.57;2.78;;;;;;;;;;5012918;28;20053;-78
2022/10/29 03:22:52;;;;;;;15.10;3.03;;;;;;;;;;5019788;28;20402;-79
2022/10/29 03:25:19;;;;;;;12.20;3.17;;;;;;;;;;5029543;28;20102;-78
2022/10/29 03:27:45;;;;;;;7.13;2.88;;;;;;;;;;4997817;28;20050;-79
2022/10/29 03:30:12;;;;;;;15.40;3.30;;;;;;;;;;5013203;28;20434;-79
2022/10/29 03:32:40;;;;;;;13.98;3.03;;;;;;;;;;5012064;28;20459;-79
2022/10/29 03:35:07;;;;;;;17.33;2.85;;;;;;;;;;5012680;28;20529;-79
2022/10/29 03:37:33;;;;;;;6.80;2.60;;;;;;;;;;5013940;28;20065;-78
2022/10/29 03:40:00;;;;;;;13.38;2.42;;;;;;;;;;5010732;28;20054;-79
2022/10/29 03:42:26;;;;;;;9.65;3.00;;;;;;;;;;5011584;28;20056;-77
2022/10/29 03:44:52;;;;;;;14.40;3.20;;;;;;;;;;5012043;28;20056;-80
2022/10/29 03:47:19;;;;;;;13.23;3.13;;;;;;;;;;5013150;28;20057;-78
2022/10/29 03:49:45;;;;;;;14.50;2.55;;;;;;;;;;4994230;28;20046;-79
2022/10/29 03:52:11;;;;;;;13.32;3.13;;;;;;;;;;5012410;28;20050;-80
2022/10/29 03:54:38;;;;;;;12.13;2.90;;;;;;;;;;5010556;28;20049;-80
2022/10/29 03:57:04;;;;;;;14.00;3.15;;;;;;;;;;5012966;28;20060;-80
2022/10/29 03:59:30;;;;;;;16.15;3.08;;;;;;;;;;5011986;28;20054;-79
2022/10/29 04:01:57;;;;;;;11.05;3.15;;;;;;;;;;5010953;28;20058;-80
2022/10/29 04:04:23;;;;;;;17.55;3.75;;;;;;;;;;5008776;28;20058;-79
2022/10/29 04:06:50;;;;;;;15.88;3.30;;;;;;;;;;5010528;28;20049;-79
2022/10/29 04:09:16;;;;;;;12.63;3.50;;;;;;;;;;5012399;28;20061;-78
2022/10/29 04:11:42;;;;;;;11.38;3.10;;;;;;;;;;5030420;28;20111;-79
2022/10/29 04:14:09;;;;;;;8.85;3.17;;;;;;;;;;5026999;28;20046;-79
2022/10/29 04:16:35;;;;;;;15.15;3.00;;;;;;;;;;5027212;28;20052;-80
2022/10/29 04:19:02;;;;;;;9.55;3.67;;;;;;;;;;5030254;28;20060;-81
2022/10/29 04:21:28;;;;;;;11.13;3.28;;;;;;;;;;5031706;28;20076;-79
2022/10/29 04:24:15;;;;;;;16.92;3.20;;;;;;;;;;5027054;28;20064;-80
2022/10/29 04:27:02;;;;;;;12.93;3.13;;;;;;;;;;5032117;28;20042;-79
2022/10/29 04:29:48;;;;;;;9.65;3.30;;;;;;;;;;5029132;28;20034;-79
2022/10/29 04:32:15;;;;;;;13.77;3.40;;;;;;;;;;5023999;28;20045;-78
2022/10/29 04:34:41;;;;;;;15.23;2.92;;;;;;;;;;5009123;28;20056;-78
2022/10/29 04:37:07;;;;;;;15.43;3.83;;;;;;;;;;5010619;28;20049;-78
2022/10/29 04:39:34;;;;;;;20.33;3.35;;;;;;;;;;5008816;28;20478;-78
2022/10/29 04:42:00;;;;;;;15.27;3.55;;;;;;;;;;5010666;28;20050;-76
2022/10/29 04:44:26;;;;;;;12.30;3.38;;;;;;;;;;5008968;28;20058;-79
2022/10/29 04:46:53;;;;;;;12.98;3.50;;;;;;;;;;5011356;28;20072;-79
2022/10/29 04:49:19;;;;;;;15.30;3.42;;;;;;;;;;5010031;28;20046;-79
2022/10/29 04:51:46;;;;;;;18.02;3.38;;;;;;;;;;5011553;28;20049;-76
2022/10/29 04:54:12;;;;;;;8.63;3.30;;;;;;;;;;5009292;28;20041;-78
2022/10/29 04:56:38;;;;;;;9.20;3.35;;;;;;;;;;5015398;28;20056;-78
2022/10/29 04:59:05;;;;;;;9.63;3.40;;;;;;;;;;5023641;28;20053;-79
2022/10/29 05:01:31;;;;;;;10.68;3.30;;;;;;;;;;5025838;28;20054;-78
2022/10/29 05:03:58;;;;;;;10.82;3.50;;;;;;;;;;5016379;28;20073;-78
2022/10/29 05:06:25;;;;;;;12.95;3.72;;;;;;;;;;5014949;28;20054;-80
2022/10/29 05:08:52;;;;;;;17.42;3.67;;;;;;;;;;5013806;28;20145;-79
2022/10/29 05:11:18;;;;;;;13.40;3.67;;;;;;;;;;5014730;28;20102;-79
2022/10/29 05:13:45;;;;;;;13.20;3.55;;;;;;;;;;5014149;28;20046;-80
2022/10/29 05:16:11;;;;;;;9.88;3.80;;;;;;;;;;5015121;28;20109;-78
2022/10/29 05:18:38;;;;;;;14.07;3.92;;;;;;;;;;4995313;28;20050;-77
2022/10/29 05:21:04;;;;;;;11.18;3.95;;;;;;;;;;5013197;28;20050;-81
2022/10/29 05:23:31;;;;;;;13.98;3.80;;;;;;;;;;5012326;28;20101;-80
2022/10/29 05:25:57;;;;;;;17.15;3.83;;;;;;;;;;5015731;28;20053;-79
2022/10/29 05:28:24;;;;;;;16.48;4.05;;;;;;;;;;5015078;28;20046;-79
2022/10/29 05:30:51;;;;;;;13.70;3.42;;;;;;;;;;5015409;28;20042;-79
2022/10/29 05:33:19;;;;;;;13.27;3.20;;;;;;;;;;5014441;28;20453;-79
2022/10/29 05:35:45;;;;;;;14.98;3.75;;;;;;;;;;5014364;28;20046;-79
2022/10/29 05:38:12;;;;;;;7.78;3.10;;;;;;;;;;4997788;28;20137;-78
2022/10/29 05:40:39;;;;;;;13.02;3.35;;;;;;;;;;5026148;28;20138;-80
2022/10/29 05:43:05;;;;;;;8.73;3.95;;;;;;;;;;5025361;28;20082;-79
2022/10/29 05:45:32;;;;;;;8.63;2.80;;;;;;;;;;5015525;28;20057;-79
2022/10/29 05:47:59;;;;;;;8.88;3.38;;;;;;;;;;5015234;28;20041;-79
2022/10/29 05:50:26;;;;;;;10.23;3.50;;;;;;;;;;5013665;28;20178;-78
2022/10/29 05:52:57;;;;;;;11.15;3.40;;;;;;;;;;5013377;28;20073;-79
2022/10/29 05:55:25;;;;;;;10.65;3.70;;;;;;;;;;5013070;28;20137;-79
2022/10/29 05:57:55;;;;;;;11.85;4.20;;;;;;;;;;5014911;28;20050;-79
2022/10/29 06:00:21;;;;;;;14.98;3.40;;;;;;;;;;5013985;28;20045;-79
2022/10/29 06:02:48;;;;;;;11.43;3.75;;;;;;;;;;5010805;28;20060;-79
2022/10/29 06:05:14;;;;;;;10.88;3.38;;;;;;;;;;4994984;28;20050;-78
2022/10/29 06:07:40;;;;;;;13.55;3.85;;;;;;;;;;5014130;28;20522;-79
2022/10/29 06:10:08;;;;;;;8.10;3.70;;;;;;;;;;5012134;28;20080;-79
2022/10/29 06:12:35;;;;;;;14.88;3.60;;;;;;;;;;5012776;28;20046;-78
2022/10/29 06:15:01;;;;;;;11.85;4.03;;;;;;;;;;5013716;28;20438;-79
2022/10/29 06:17:28;;;;;;;11.85;3.95;;;;;;;;;;5013718;28;20537;-78
2022/10/29 06:19:54;;;;;;;14.57;3.47;;;;;;;;;;5012167;28;20057;-79
2022/10/29 06:22:20;;;;;;;10.13;4.13;;;;;;;;;;5012895;28;20054;-78
2022/10/29 06:24:47;;;;;;;12.57;4.28;;;;;;;;;;5012324;28;20390;-79
2022/10/29 06:27:13;;;;;;;16.27;4.07;;;;;;;;;;5013300;28;20046;-78
2022/10/29 06:29:39;;;;;;;10.73;3.55;;;;;;;;;;5012052;28;20539;-78
2022/10/29 06:32:06;;;;;;;14.65;3.80;;;;;;;;;;5011337;28;20054;-78
2022/10/29 06:34:32;;;;;;;12.00;3.90;;;;;;;;;;5010581;28;20328;-78
2022/10/29 06:36:59;;;;;;;12.75;3.88;;;;;;;;;;5011932;28;20401;-78
2022/10/29 06:39:25;;;;;;;10.48;3.13;;;;;;;;;;5010714;28;20060;-78
2022/10/29 06:41:51;;;;;;;13.50;3.42;;;;;;;;;;5012462;28;20598;-79
2022/10/29 06:44:18;;;;;;;12.73;3.60;;;;;;;;;;5008697;28;20058;-79
2022/10/29 06:46:44;;;;;;;10.02;3.58;;;;;;;;;;5011397;28;20053;-79
2022/10/29 06:49:10;;;;;;;12.98;3.85;;;;;;;;;;4993169;28;20049;-79
2022/10/29 06:51:37;;;;;;;8.93;3.53;;;;;;;;;;5011812;28;20060;-77
2022/10/29 06:54:03;;;;;;;17.85;3.70;;;;;;;;;;5008980;28;20046;-78
2022/10/29 06:56:30;;;;;;;12.85;4.43;;;;;;;;;;5012236;28;20046;-78
2022/10/29 06:58:56;;;;;;;12.25;3.83;;;;;;;;;;5011427;28;20057;-78
2022/10/29 07:01:25;;;;;;;10.07;4.07;;;;;;;;;;5011621;28;20458;-78
2022/10/29 07:03:57;;;;;;;16.35;4.03;;;;;;;;;;5007569;28;20058;-80
2022/10/29 07:06:23;;;;;;;9.82;3.83;;;;;;;;;;4994566;28;20418;-78
2022/10/29 07:08:49;;;;;;;16.90;4.07;;;;;;;;;;5010414;28;20050;-78
2022/10/29 07:11:16;;;;;;;16.65;4.28;;;;;;;;;;5011368;28;20105;-80
2022/10/29 07:13:42;;;;;;;13.40;4.13;;;;;;;;;;5010156;28;20061;-79
2022/10/29 07:16:09;;;;;;;15.75;4.20;;;;;;;;;;5011913;28;20054;-80
2022/10/29 07:18:35;;;;;;;14.65;4.07;;;;;;;;;;5010685;28;20060;-80
2022/10/29 07:21:02;;;;;;;12.88;4.40;;;;;;;;;;5010678;28;20065;-79
2022/10/29 07:23:29;;;;;;;12.75;4.18;;;;;;;;;;5009979;28;20058;-80
2022/10/29 07:26:00;;;;;;;15.35;4.35;;;;;;;;;;5010375;28;20248;-80
2022/10/29 07:28:26;;;;;;;14.13;4.25;;;;;;;;;;5010914;28;20069;-80
2022/10/29 07:30:57;;;;;;;17.45;4.10;;;;;;;;;;5012580;28;20046;-79
2022/10/29 07:33:23;;;;;;;11.68;3.80;;;;;;;;;;5011378;28;20073;-80
2022/10/29 07:35:50;;;;;;;15.13;4.80;;;;;;;;;;5012089;28;20046;-80
2022/10/29 07:38:16;;;;;;;11.85;3.45;;;;;;;;;;5012016;28;20057;-79
2022/10/29 07:40:46;;;;;;;13.25;3.50;;;;;;;;;;5010460;28;20057;-78
2022/10/29 07:43:13;;;;;;;17.08;4.22;;;;;;;;;;4992582;28;20166;-78
2022/10/29 07:45:41;;;;;;;12.77;3.65;;;;;;;;;;5010947;28;20050;-79
2022/10/29 07:48:08;;;;;;;13.43;4.15;;;;;;;;;;5011028;28;20449;-81
2022/10/29 07:50:35;;;;;;;16.85;4.00;;;;;;;;;;5010698;28;20048;-80
2022/10/29 07:53:02;;;;;;;15.45;3.85;;;;;;;;;;4993601;28;20123;-80
2022/10/29 07:55:28;;;;;;;12.25;3.67;;;;;;;;;;5010040;28;20045;-80
2022/10/29 07:58:01;;;;;;;15.35;3.92;;;;;;;;;;5017108;28;20076;-79
2022/10/29 08:00:28;;;;;;;11.35;3.38;;;;;;;;;;5018182;28;20305;-80
2022/10/29 08:02:55;;;;;;;19.48;3.80;;;;;;;;;;5009993;28;20047;-79
2022/10/29 08:05:22;;;;;;;18.45;5.35;;;;;;;;;;5010069;28;20046;-79
2022/10/29 08:07:48;;;;;;;16.52;4.03;;;;;;;;;;5011233;28;20061;-80
2022/10/29 08:10:15;;;;;;;11.38;3.85;;;;;;;;;;4991637;28;20053;-79
2022/10/29 08:12:51;;;;;;;18.58;4.38;;;;;;;;;;5010464;28;20049;-80
2022/10/29 08:15:18;;;;;;;21.42;5.03;;;;;;;;;;5011338;28;20061;-80
2022/10/29 08:17:45;;;;;;;15.38;4.35;;;;;;;;;;5018316;28;20076;-79
2022/10/29 08:20:12;;;;;;;14.25;4.05;;;;;;;;;;5025754;28;20152;-78
2022/10/29 08:22:39;;;;;;;17.00;5.85;;;;;;;;;;5020351;28;20048;-81
2022/10/29 08:25:05;;;;;;;17.25;6.55;;;;;;;;;;5010632;28;20160;-78
2022/10/29 08:27:32;;;;;;;13.13;4.50;;;;;;;;;;5011768;28;20053;-80
2022/10/29 08:29:58;;;;;;;15.18;4.25;;;;;;;;;;5011042;28;20046;-79
2022/10/29 08:32:25;;;;;;;18.80;4.72;;;;;;;;;;5010498;28;20056;-79
2022/10/29 08:34:51;;;;;;;15.77;4.25;;;;;;;;;;4992086;28;20050;-79
2022/10/29 08:37:17;;;;;;;13.15;3.45;;;;;;;;;;5010363;28;20153;-80
2022/10/29 08:39:44;;;;;;;14.35;3.80;;;;;;;;;;5009895;28;20237;-78
2022/10/29 08:42:22;;;;;;;18.33;3.53;;;;;;;;;;5011790;28;20314;-79
2022/10/29 08:45:04;;;;;;;21.88;3.75;;;;;;;;;;5010151;28;20050;-81
2022/10/29 08:47:34;;;;;;;18.33;3.85;;;;;;;;;;4994111;28;20065;-79
2022/10/29 08:50:03;;;;;;;14.82;4.35;;;;;;;;;;5010553;28;20058;-79
2022/10/29 08:52:37;;;;;;;13.75;3.53;;;;;;;;;;5011064;28;20050;-78
2022/10/29 08:55:25;;;;;;;8.48;3.42;;;;;;;;;;5010016;28;20074;-81
2022/10/29 08:58:01;;;;;;;13.95;3.33;;;;;;;;;;5010237;28;20433;-80
2022/10/29 09:00:32;;;;;;;13.73;3.10;;;;;;;;;;5010417;28;20064;-80
2022/10/29 09:02:59;;;;;;;14.32;3.25;;;;;;;;;;5009473;28;20060;-79
2022/10/29 09:05:29;;;;;;;12.15;2.97;;;;;;;;;;5009487;28;20060;-79
2022/10/29 09:07:55;;;;;;;14.35;3.67;;;;;;;;;;5010727;28;20061;-79
2022/10/29 09:10:42;;;;;;;14.90;3.63;;;;;;;;;;5010466;28;20046;-78
2022/10/29 09:13:09;;;;;;;22.70;4.53;;;;;;;;;;5010310;28;20462;-79
2022/10/29 09:15:39;;;;;;;13.23;2.72;;;;;;;;;;5011529;28;20046;-78
2022/10/29 09:18:17;;;;;;;18.23;3.30;;;;;;;;;;5011580;28;20054;-80
2022/10/29 09:21:02;;;;;;;16.42;3.60;;;;;;;;;;4994905;28;20556;-79
2022/10/29 09:23:40;;;;;;;13.63;3.23;;;;;;;;;;5009675;28;20058;-79
2022/10/29 09:26:19;;;;;;;18.17;3.13;;;;;;;;;;5012045;28;20054;-79
2022/10/29 09:28:51;;;;;;;14.07;3.67;;;;;;;;;;5014582;28;20105;-79
2022/10/29 09:31:28;;;;;;;13.98;3.55;;;;;;;;;;5015893;28;20490;-79
2022/10/29 09:33:57;;;;;;;13.38;3.40;;;;;;;;;;5014163;28;20046;-79
2022/10/29 09:36:28;;;;;;;16.88;3.20;;;;;;;;;;5006389;28;20108;-80
2022/10/29 09:38:58;;;;;;;14.35;3.28;;;;;;;;;;5026045;28;20494;-79
2022/10/29 09:41:25;;;;;;;16.83;3.50;;;;;;;;;;5027033;28;20050;-80
2022/10/29 09:44:00;;;;;;;16.77;2.90;;;;;;;;;;5021705;28;20070;-79
2022/10/29 09:46:37;;;;;;;10.43;3.03;;;;;;;;;;5023365;28;20054;-79
2022/10/29 09:49:26;;;;;;;12.35;3.22;;;;;;;;;;5016951;28;20382;-79
2022/10/29 09:52:07;;;;;;;11.57;3.00;;;;;;;;;;4990898;28;20072;-79
2022/10/29 09:54:33;;;;;;;13.65;3.53;;;;;;;;;;4999862;28;20110;-80
2022/10/29 09:57:01;;;;;;;15.35;3.13;;;;;;;;;;4999331;28;20049;-79
2022/10/29 09:59:43;;;;;;;14.32;3.08;;;;;;;;;;5013171;28;20057;-79
2022/10/29 10:02:28;;;;;;;13.82;3.10;;;;;;;;;;5014197;28;20049;-78
2022/10/29 10:04:57;;;;;;;11.38;2.97;;;;;;;;;;5013772;28;20046;-79
2022/10/29 10:07:23;;;;;;;15.80;3.40;;;;;;;;;;5019992;28;20049;-79
2022/10/29 10:09:52;;;;;;;17.05;2.90;;;;;;;;;;5023648;28;20056;-79
2022/10/29 10:12:20;;;;;;;14.25;3.45;;;;;;;;;;5024334;28;20052;-77
2022/10/29 10:14:47;;;;;;;12.15;3.38;;;;;;;;;;5026624;28;20045;-79
2022/10/29 10:17:14;;;;;;;18.02;3.80;;;;;;;;;;5015480;28;20404;-79
2022/10/29 10:19:44;;;;;;;12.27;3.15;;;;;;;;;;5010862;28;20077;-78
2022/10/29 10:22:18;;;;;;;14.65;3.88;;;;;;;;;;5012817;28;20409;-78
2022/10/29 10:24:45;;;;;;;22.40;3.72;;;;;;;;;;5011619;28;20050;-78
2022/10/29 10:27:29;;;;;;;19.13;3.75;;;;;;;;;;5013799;28;20046;-78
2022/10/29 10:30:02;;;;;;;17.88;3.28;;;;;;;;;;5013415;28;20053;-77
2022/10/29 10:32:29;;;;;;;9.75;3.25;;;;;;;;;;5013839;28;20050;-78
2022/10/29 10:34:55;;;;;;;15.25;3.05;;;;;;;;;;5013520;28;20490;-79
2022/10/29 10:37:22;;;;;;;16.77;3.75;;;;;;;;;;5014258;28;20056;-78
2022/10/29 10:39:48;;;;;;;15.48;3.70;;;;;;;;;;5012638;28;20088;-80
2022/10/29 10:42:45;;;;;;;13.48;3.17;;;;;;;;;;5016931;28;20057;-77
2022/10/29 10:45:16;;;;;;;13.98;3.67;;;;;;;;;;5001314;28;20058;-78
2022/10/29 10:47:45;;;;;;;16.35;4.03;;;;;;;;;;5012694;28;20046;-80
2022/10/29 10:50:19;;;;;;;12.68;3.47;;;;;;;;;;5012527;28;20050;-78
2022/10/29 10:52:46;;;;;;;12.57;2.97;;;;;;;;;;5010230;28;20474;-78
2022/10/29 10:55:21;;;;;;;17.70;3.70;;;;;;;;;;5011201;28;20042;-78
2022/10/29 10:57:50;;;;;;;19.58;4.20;;;;;;;;;;4996893;28;20057;-78
2022/10/29 11:00:21;;;;;;;11.10;3.53;;;;;;;;;;5013969;28;20410;-79
2022/10/29 11:02:51;;;;;;;15.73;3.97;;;;;;;;;;5012394;28;20104;-79
2022/10/29 11:05:18;;;;;;;16.50;3.13;;;;;;;;;;5012090;28;20418;-77
2022/10/29 11:07:55;;;;;;;12.20;3.47;;;;;;;;;;5011966;28;20361;-78
2022/10/29 11:10:27;;;;;;;15.15;3.40;;;;;;;;;;5010296;28;20132;-78
2022/10/29 11:12:54;;;;;;;13.93;3.33;;;;;;;;;;5011402;28;20045;-78
2022/10/29 11:15:26;;;;;;;9.18;3.33;;;;;;;;;;5011773;28;20053;-79
2022/10/29 11:17:54;;;;;;;14.88;3.10;;;;;;;;;;5011476;28;20060;-79
2022/10/29 11:20:30;;;;;;;25.52;3.75;;;;;;;;;;5012791;28;20053;-79
2022/10/29 11:23:22;;;;;;;14.25;3.60;;;;;;;;;;5010504;28;20514;-78
2022/10/29 11:26:08;;;;;;;19.17;3.08;;;;;;;;;;5011093;28;20145;-78
2022/10/29 11:28:44;;;;;;;13.25;3.13;;;;;;;;;;5001035;28;20046;-78
2022/10/29 11:31:10;;;;;;;;;;;;;;;;;;5013383;28;20050;-79
2022/10/29 11:33:46;;;;;;;11.27;3.22;;;;;;;;;;5011186;28;19943;-80
2022/10/29 11:36:21;;;;;;;17.15;3.47;;;;;;;;;;5022061;28;20052;-79
2022/10/29 11:38:50;;;;;;;17.20;3.50;;;;;;;;;;5026130;28;20081;-79
2022/10/29 11:41:23;;;;;;;15.20;3.20;;;;;;;;;;5006057;28;20565;-78
2022/10/29 11:43:49;;;;;;;17.10;3.40;;;;;;;;;;5009979;28;20056;-78
2022/10/29 11:46:29;;;;;;;9.65;3.05;;;;;;;;;;5012364;28;20077;-79
2022/10/29 11:49:06;;;;;;;15.95;3.40;;;;;;;;;;5018457;28;20052;-79
2022/10/29 11:51:51;;;;;;;17.05;3.30;;;;;;;;;;5020770;28;20050;-77
2022/10/29 11:54:30;;;;;;;14.80;3.38;;;;;;;;;;5001033;28;20046;-80
2022/10/29 11:57:00;;;;;;;12.07;3.65;;;;;;;;;;4999397;28;20064;-79
2022/10/29 11:59:38;;;;;;;15.68;3.13;;;;;;;;;;5012615;28;20135;-78
2022/10/29 12:02:23;;;;;;;20.20;3.17;;;;;;;;;;5012953;28;20060;-79
2022/10/29 12:05:20;;;;;;;16.43;3.13;;;;;;;;;;5013556;28;20053;-79
2022/10/29 12:08:05;;;;;;;15.63;3.33;;;;;;;;;;5000277;28;20784;-80
2022/10/29 12:10:50;;;;;;;15.10;3.40;;;;;;;;;;5012505;28;20049;-80
2022/10/29 12:13:32;;;;;;;11.35;3.72;;;;;;;;;;5028580;28;20044;-79
2022/10/29 12:16:18;;;;;;;16.90;4.13;;;;;;;;;;5014687;28;20054;-78
2022/10/29 12:18:44;;;;;;;14.98;3.72;;;;;;;;;;5010378;28;20512;-78
2022/10/29 12:21:13;;;;;;;13.95;3.10;;;;;;;;;;5015397;28;20054;-78
2022/10/29 12:23:43;;;;;;;12.57;3.30;;;;;;;;;;5021906;28;20053;-78
2022/10/29 12:26:09;;;;;;;14.85;3.35;;;;;;;;;;5014186;28;20494;-80
2022/10/29 12:28:57;;;;;;;11.63;3.40;;;;;;;;;;5016448;28;20052;-77
2022/10/29 12:31:23;;;;;;;14.18;3.38;;;;;;;;;;5017394;28;20088;-79
2022/10/29 12:33:55;;;;;;;12.95;3.30;;;;;;;;;;5009876;28;20050;-79
2022/10/29 12:36:27;;;;;;;23.10;4.05;;;;;;;;;;5014025;28;20058;-79
2022/10/29 12:38:55;;;;;;;22.88;3.75;;;;;;;;;;5017195;28;20052;-80
2022/10/29 12:41:36;;;;;;;12.43;3.70;;;;;;;;;;5015601;28;20137;-79
2022/10/29 12:44:11;;;;;;;17.38;3.60;;;;;;;;;;5012336;28;20061;-79
2022/10/29 12:46:45;;;;;;;14.43;3.58;;;;;;;;;;5012656;28;20049;-79
2022/10/29 12:49:14;;;;;;;11.97;3.30;;;;;;;;;;5012721;28;20041;-80
2022/10/29 12:51:52;;;;;;;14.23;3.65;;;;;;;;;;5013555;28;20129;-79
2022/10/29 12:54:37;;;;;;;12.98;3.05;;;;;;;;;;5011026;28;20080;-79
2022/10/29 12:57:24;;;;;;;16.13;3.63;;;;;;;;;;5015499;28;20132;-80
2022/10/29 12:59:50;;;;;;;10.70;2.72;;;;;;;;;;5009386;28;20046;-80
2022/10/29 13:02:16;;;;;;;22.25;4.07;;;;;;;;;;5015958;28;20509;-79
2022/10/29 13:05:09;;;;;;;17.70;3.38;;;;;;;;;;5014386;28;20050;-79
2022/10/29 13:07:37;;;;;;;17.02;3.35;;;;;;;;;;4994481;28;20049;-80
2022/10/29 13:10:22;;;;;;;24.83;3.58;;;;;;;;;;5012339;28;20450;-79
2022/10/29 13:12:59;;;;;;;21.40;3.80;;;;;;;;;;5019939;28;20518;-79
2022/10/29 13:15:25;;;;;;;19.30;3.60;;;;;;;;;;5022745;28;20081;-79
2022/10/29 13:17:53;;;;;;;19.20;3.28;;;;;;;;;;5019785;28;20058;-79
2022/10/29 13:20:20;;;;;;;15.88;3.60;;;;;;;;;;5013666;28;20062;-80
2022/10/29 13:22:57;;;;;;;10.75;2.92;;;;;;;;;;4996453;28;20065;-79
2022/10/29 13:25:32;;;;;;;13.50;3.30;;;;;;;;;;5013503;28;20060;-79
2022/10/29 13:28:08;;;;;;;12.80;3.47;;;;;;;;;;5013498;28;20129;-80
2022/10/29 13:30:37;;;;;;;9.68;3.15;;;;;;;;;;5014166;28;20096;-78
2022/10/29 13:33:32;;;;;;;14.82;3.33;;;;;;;;;;5012286;28;20415;-78
2022/10/29 13:36:00;;;;;;;20.05;3.50;;;;;;;;;;4995669;28;20054;-77
2022/10/29 13:38:59;;;;;;;14.50;3.40;;;;;;;;;;5012920;28;20064;-79
2022/10/29 13:41:41;;;;;;;19.80;3.75;;;;;;;;;;5014297;28;20058;-77
2022/10/29 13:44:13;;;;;;;20.13;3.40;;;;;;;;;;5013637;28;20066;-80
2022/10/29 13:46:46;;;;;;;14.10;3.13;;;;;;;;;;5013759;28;20069;-79
2022/10/29 13:49:17;;;;;;;10.40;3.53;;;;;;;;;;5012579;28;20046;-79
2022/10/29 13:51:48;;;;;;;15.80;3.53;;;;;;;;;;5013360;28;20455;-78
2022/10/29 13:54:21;;;;;;;19.77;4.10;;;;;;;;;;5011961;28;20076;-79
2022/10/29 13:56:51;;;;;;;18.10;3.78;;;;;;;;;;5016245;28;20053;-78
2022/10/29 13:59:21;;;;;;;10.25;3.33;;;;;;;;;;5012790;28;20053;-80
2022/10/29 14:01:53;;;;;;;11.25;3.15;;;;;;;;;;5011532;28;20072;-79
2022/10/29 14:04:24;;;;;;;13.25;3.38;;;;;;;;;;4993645;28;20316;-78
2022/10/29 14:06:54;;;;;;;14.85;3.55;;;;;;;;;;5011896;28;20069;-78
2022/10/29 14:09:25;;;;;;;17.85;4.10;;;;;;;;;;4986052;28;20141;-79
2022/10/29 14:11:56;;;;;;;14.75;3.78;;;;;;;;;;5016864;28;20469;-77
2022/10/29 14:14:31;;;;;;;11.63;3.50;;;;;;;;;;4991944;28;20482;-78
2022/10/29 14:17:10;;;;;;;15.77;3.40;;;;;;;;;;5007866;28;20413;-78
2022/10/29 14:19:41;;;;;;;13.88;3.38;;;;;;;;;;5008948;28;20057;-78
2022/10/29 14:22:14;;;;;;;19.67;4.05;;;;;;;;;;5010543;28;20049;-79
2022/10/29 14:24:40;;;;;;;16.05;3.35;;;;;;;;;;5006704;28;20056;-78
2022/10/29 14:27:07;;;;;;;15.90;4.28;;;;;;;;;;5012890;28;20050;-78
2022/10/29 14:29:33;;;;;;;17.67;4.22;;;;;;;;;;5012754;28;20076;-78
2022/10/29 14:32:06;;;;;;;15.80;3.75;;;;;;;;;;5012667;28;20060;-78
2022/10/29 14:34:32;;;;;;;19.98;4.22;;;;;;;;;;5012072;28;20054;-78
2022/10/29 14:37:03;;;;;;;15.40;4.13;;;;;;;;;;4995302;28;20048;-79
2022/10/29 14:39:34;;;;;;;20.80;4.35;;;;;;;;;;5006391;28;20084;-78
2022/10/29 14:42:33;;;;;;;13.43;3.70;;;;;;;;;;5007928;28;20058;-79
2022/10/29 14:45:01;;;;;;;17.25;3.65;;;;;;;;;;5012290;28;20103;-79
2022/10/29 14:47:30;;;;;;;15.45;3.60;;;;;;;;;;5021676;28;20046;-77
2022/10/29 14:50:01;;;;;;;13.57;3.38;;;;;;;;;;5032922;28;20053;-78